»·PEaware :: ASA241 KSEA-KPDX

ASA241 :: KSEA-KPDX

FLIGHT INFORMATION

Flight Status: Arrived
Operator:
Alaska Airlines
More flights by this operator :: More flights under this callsign
Pilot: Drew L. (13237)
Aircraft: AIRBUS A320
(A320)
More flights by this aircraft type
Origin: KSEA Seattle-Tacoma Intl
United States
Destination: KPDX Portland Intl
United States
More flights between these airports :: More routes between these airports
Route: +SEA7 BUWZO KRATR2
File this flight plan on PilotEdge
Remarks: PBN / A1B1C1D1O1S1 DOF / 181012 REG / N320SB OPR / ASA PER / C RMK / TCAS SIMBRIEF
Altitude:
(Current/Filed)
17,000ft
Speed:
(Current/Filed)
356kts
Departed: 11-Oct-18 05:27 PM
Arrived: 11-Oct-18 05:52 PM
Distance/Time
Traveled:
112nm/0:25
Distance/Time
To Go:
Arrived

Flight Plot

Page will automatically refresh every two minutes.

Flight plan parsing failed; only flown route is shown


Map Options




Map Legend


Flown Route
Filed Route
Departure Airport
Arrival Airport
Navaid (VOR, NDB)
Fix

Horizontal Profiles

Position Reports

Time Latitude Longitude Heading Altitude Ground
Speed
11-Oct-18 17:02 47.446819 -122.303897 220 336ft 0kts
11-Oct-18 17:03 47.446819 -122.303897 220 336ft 0kts
11-Oct-18 17:04 47.446819 -122.303897 220 336ft 0kts
11-Oct-18 17:05 47.446819 -122.303897 220 336ft 0kts
11-Oct-18 17:06 47.446819 -122.303897 220 336ft 0kts
11-Oct-18 17:07 47.446819 -122.303897 220 336ft 0kts
11-Oct-18 17:08 47.446819 -122.303897 220 336ft 0kts
11-Oct-18 17:09 47.446819 -122.303897 220 336ft 0kts
11-Oct-18 17:10 47.446819 -122.303897 220 336ft 0kts
11-Oct-18 17:11 47.446819 -122.303897 220 336ft 0kts
11-Oct-18 17:12 47.446819 -122.303897 220 336ft 0kts
11-Oct-18 17:13 47.446819 -122.303897 220 336ft 0kts
11-Oct-18 17:14 47.446819 -122.303897 220 336ft 0kts
11-Oct-18 17:15 47.446819 -122.303897 220 336ft 0kts
11-Oct-18 17:16 47.446819 -122.303897 220 336ft 0kts
11-Oct-18 17:17 47.446819 -122.303897 220 336ft 0kts
11-Oct-18 17:18 47.446819 -122.303897 220 336ft 0kts
11-Oct-18 17:19 47.446819 -122.303897 220 336ft 0kts
11-Oct-18 17:20 47.447031 -122.303627 221 336ft 0kts
11-Oct-18 17:21 47.447447 -122.303707 128 336ft 1kts
11-Oct-18 17:22 47.447451 -122.303714 128 336ft 0kts
11-Oct-18 17:23 47.447621 -122.304564 279 336ft 8kts
11-Oct-18 17:24 47.450581 -122.306254 1 336ft 25kts
11-Oct-18 17:25 47.458939 -122.306169 0 336ft 34kts
11-Oct-18 17:26 47.463702 -122.306429 297 336ft 0kts
11-Oct-18 17:27 47.463644 -122.308425 270 336ft 20kts
11-Oct-18 17:28 47.462328 -122.310996 181 336ft 27kts
11-Oct-18 17:29 47.418492 -122.311972 179 2640ft 229kts
11-Oct-18 17:30 47.345618 -122.310900 180 6677ft 287kts
11-Oct-18 17:31 47.249570 -122.310571 180 11150ft 323kts
11-Oct-18 17:32 47.168373 -122.310478 180 12518ft 391kts
11-Oct-18 17:33 47.059646 -122.310024 181 15811ft 400kts
11-Oct-18 17:34 46.950773 -122.309626 180 17087ft 393kts
11-Oct-18 17:35 46.842492 -122.309621 180 17088ft 394kts
11-Oct-18 17:36 46.743357 -122.309619 180 17088ft 394kts
11-Oct-18 17:37 46.635880 -122.309615 180 17085ft 394kts
11-Oct-18 17:38 46.528348 -122.309625 180 17054ft 394kts
11-Oct-18 17:39 46.419512 -122.309629 180 16572ft 391kts
11-Oct-18 17:40 46.312231 -122.309581 180 14680ft 377kts
11-Oct-18 17:41 46.212894 -122.334159 202 12610ft 361kts
11-Oct-18 17:42 46.123019 -122.384326 202 10626ft 350kts
11-Oct-18 17:43 46.034033 -122.432941 201 9925ft 325kts
11-Oct-18 17:44 45.954556 -122.475596 201 8808ft 300kts
11-Oct-18 17:45 45.877365 -122.471577 167 7350ft 293kts
11-Oct-18 17:46 45.799019 -122.446459 167 5890ft 286kts
11-Oct-18 17:47 45.724541 -122.422812 167 4963ft 277kts
11-Oct-18 17:48 45.652183 -122.399925 167 4286ft 256kts
11-Oct-18 17:49 45.586294 -122.379149 167 3490ft 221kts
11-Oct-18 17:50 45.548549 -122.413844 256 3086ft 175kts
11-Oct-18 17:51 45.547845 -122.474579 301 1601ft 151kts
11-Oct-18 17:52 45.565404 -122.520117 300 813ft 124kts
11-Oct-18 17:53 45.581653 -122.561856 300 175ft 122kts
11-Oct-18 17:54 45.591812 -122.588392 289 26ft 38kts
11-Oct-18 17:55 45.593477 -122.596954 239 26ft 23kts
11-Oct-18 17:56 45.588949 -122.600166 120 26ft 26kts
11-Oct-18 17:57 45.588190 -122.595800 37 26ft 0kts
11-Oct-18 17:58 45.588190 -122.595800 37 26ft 0kts

Navigation Log

Ident Type
Flight plan parsing failed, navigation log unavailable